MDT,Max TemperatureF,Mean TemperatureF,Min TemperatureF,Max Dew PointF,MeanDew PointF,Min DewpointF,Max Humidity, Mean Humidity, Min Humidity, Max Sea Level PressureIn, Mean Sea Level PressureIn, Min Sea Level PressureIn, Max VisibilityMiles, Mean VisibilityMiles, Min VisibilityMiles, Max Wind SpeedMPH, Mean Wind SpeedMPH, Max Gust SpeedMPH,PrecipitationIn, CloudCover, Events, WindDirDegrees
2013-7-1,92,72,51,45,38,23,54,31,8,30.32,30.05,29.97,10,10,10,15,6,22,0.00,0,,8
2013-7-2,91,72,52,43,36,27,55,33,10,30.07,30.00,29.90,10,10,8,20,5,38,0.00,0,,299
2013-7-3,93,72,51,45,39,32,64,39,13,30.15,29.89,29.80,10,10,10,24,9,32,0.00,1,,1
2013-7-4,85,71,56,55,47,41,69,47,24,30.13,29.86,29.79,10,10,10,32,7,38,T,1,Rain-Thunderstorm,344
2013-7-5,84,69,53,54,47,39,100,61,22,30.14,29.86,29.69,10,9,2,46,8,60,0.23,3,Rain-Thunderstorm,341
2013-7-6,85,65,44,52,43,33,86,52,17,30.24,29.93,29.77,10,10,5,32,7,48,0.13,3,Rain-Thunderstorm,18
2013-7-7,84,64,44,51,45,32,93,55,16,30.20,29.99,29.84,10,10,10,41,10,54,T,2,Rain-Thunderstorm,222
2013-7-8,82,64,45,48,42,34,86,54,21,30.24,30.01,29.94,10,10,10,36,5,48,T,1,Rain-Thunderstorm,256
2013-7-9,88,64,40,44,33,24,76,43,10,30.12,30.06,30.01,10,10,10,21,8,36,0.00,0,,330
2013-7-10,90,67,44,36,30,23,60,35,9,30.07,29.99,29.87,10,10,10,15,6,23,0.00,0,,37
2013-7-11,88,67,46,46,36,25,58,34,10,29.89,29.84,29.78,10,10,10,23,9,29,T,1,Rain,323
2013-7-12,76,64,51,49,42,33,83,53,23,30.23,29.92,29.85,10,10,10,18,6,23,T,4,Rain,235
2013-7-13,75,61,46,53,43,35,71,51,31,30.30,30.05,29.96,10,10,4,30,7,38,0.07,3,Rain-Thunderstorm,13
2013-7-14,84,64,44,46,41,30,86,50,14,30.13,30.05,29.97,10,10,10,25,6,30,0.00,0,,328
2013-7-15,88,65,42,40,33,24,76,43,10,30.04,29.93,29.82,10,10,10,16,5,20,0.00,0,,11
2013-7-16,85,68,51,57,44,35,87,53,18,30.25,29.96,29.87,10,10,10,28,6,35,T,4,Rain,334
2013-7-17,88,70,51,55,50,44,96,60,23,30.42,30.12,29.97,10,9,1,26,6,35,0.11,4,Rain-Thunderstorm,289
2013-7-18,88,68,47,52,40,21,93,51,9,30.14,30.05,29.97,10,10,10,23,8,28,0.00,0,,333
2013-7-19,90,69,48,43,31,15,68,38,7,30.04,29.96,29.88,10,10,10,21,7,26,0.00,0,,319
2013-7-20,90,66,42,35,26,15,61,34,6,29.95,29.87,29.81,10,10,10,24,9,32,0.00,0,,335
2013-7-21,90,66,42,30,17,3,58,31,4,29.86,29.83,29.81,10,10,10,25,10,32,0.00,0,,347
2013-7-22,90,65,39,24,14,-2,40,22,3,29.93,29.90,29.85,10,10,10,26,9,33,0.00,0,,324
2013-7-23,90,66,41,30,17,-7,37,20,2,30.23,29.96,29.91,10,10,10,21,7,25,0.00,0,,358
2013-7-24,87,66,44,41,31,20,59,36,13,30.24,29.98,29.89,10,10,10,26,5,35,T,1,Rain,156
2013-7-25,83,67,50,45,39,29,63,40,16,30.34,30.05,29.95,10,10,10,28,8,36,0.00,1,Thunderstorm,246
2013-7-26,88,66,44,45,36,27,76,44,12,30.34,30.10,29.97,10,10,10,15,6,22,0.00,0,,360
2013-7-27,75,61,47,51,40,31,83,53,23,30.02,29.95,29.85,10,10,10,20,6,26,T,3,Rain,298
2013-7-28,81,64,46,50,43,30,100,59,17,30.15,29.94,29.77,10,8,0,36,8,44,0.00,4,Fog,349
2013-7-29,77,58,39,51,42,32,93,61,29,30.25,30.05,29.86,10,9,2,23,6,29,0.33,4,Rain-Thunderstorm,110
2013-7-30,81,62,42,52,44,36,100,62,24,30.39,30.22,30.06,10,8,0,32,8,40,0.02,1,Fog-Thunderstorm,334
2013-7-31,82,65,48,47,42,37,86,54,21,30.38,30.14,29.98,10,10,10,12,6,21,T,1,Thunderstorm,61